Flight Track Log - Related Links

Times and Time Zones

All times are in EDT time to prevent confusion due to time zone crossing. See the EJA829P flight status page for this flight to view local times or setup timezone preferences in your user account.

Time Position Orientation Groundspeed Altitude Reporting Facility
EDT Latitude Longitude Course Direction KTS MPH feet Rate Location/Type
Sun 02:30:54 PM 31.6047 -91.2044 91° East 274 315 4,800  Level Houston Center
Sun 02:31:56 PM 31.6036 -91.1211 91° East 257 296 6,300 2,468 Climbing Houston Center
Sun 02:32:58 PM 31.6003 -91.0367 93° East 263 303 9,900 2,952 Climbing Houston Center
Sun 02:34:00 PM 31.5983 -90.9397 91° East 294 338 12,400 2,468 Climbing Houston Center
Sun 02:35:02 PM 31.5964 -90.8311 91° East 326 375 15,000 2,661 Climbing Houston Center
Sun 02:36:04 PM 31.5933 -90.7011 92° East 332 382 17,900 2,496 Climbing Houston Center
Sun 02:37:07 PM 31.5900 -90.5939 92° East 331 381 20,200 2,064 Climbing Houston Center
Sun 02:38:09 PM 31.5869 -90.4853 92° East 333 383 22,200 1,887 Climbing Houston Center
Sun 02:39:11 PM 31.5825 -90.3736 93° East 340 391 24,100 1,742 Climbing Houston Center
Sun 02:40:13 PM 31.5811 -90.2569 91° East 354 407 25,800 1,645 Climbing Houston Center
Sun 02:41:15 PM 31.5758 -90.1411 93° East 356 410 27,500 1,694 Climbing Houston Center
Sun 02:42:17 PM 31.5725 -89.9975 92° East 365 420 29,300 1,597 Climbing Houston Center
Sun 02:43:19 PM 31.5689 -89.8761 92° East 371 427 30,800 1,452 Climbing Houston Center
Sun 02:44:21 PM 31.5647 -89.7517 92° East 378 435 32,300 1,306 Climbing Houston Center
Sun 02:45:23 PM 31.5597 -89.6278 93° East 379 436 33,500 1,016 Climbing Houston Center
Sun 02:46:25 PM 31.5533 -89.4819 93° East 399 459 34,400 720 Climbing Houston Center
Sun 02:47:28 PM 31.5397 -89.3483 97° East 411 473 35,000 288 Climbing Houston Center
Sun 02:48:30 PM 31.4625 -89.2450 131° Southeast 418 481 35,000  Level Houston Center
Sun 02:49:32 PM 31.3761 -89.1506 137° Southeast 425 489 35,000  Level Houston Center
Sun 02:50:34 PM 31.2922 -89.0550 136° Southeast 425 489 35,000  Level Houston Center
Sun 02:51:36 PM 31.2419 -88.8986 111° Southeast 435 501 35,000  Level Houston Center
Sun 02:52:38 PM 31.2458 -88.7569 88° East 437 503 35,000  Level Houston Center
Sun 02:53:40 PM 31.2492 -88.6161 88° East 435 501 35,000  Level Houston Center
Sun 02:54:42 PM 31.2514 -88.4781 89° East 422 486 35,000  Level Houston Center
Sun 02:55:44 PM 31.2547 -88.3469 88° East 401 461 35,000  Level Houston Center
Sun 02:56:46 PM 31.2561 -88.2161 89° East 396 456 35,000  Level Houston Center
Sun 02:57:48 PM 31.2575 -88.0867 89° East 394 453 35,000  Level Houston Center
Sun 02:58:51 PM 31.2589 -87.9603 89° East 390 449 35,000  Level Houston Center
Sun 02:59:53 PM 31.2594 -87.8119 90° East 381 438 35,000  Level Houston Center
Sun 03:00:55 PM 31.2597 -87.6886 90° East 381 438 35,000  Level Houston Center
Sun 03:01:57 PM 31.2600 -87.5631 90° East 387 445 35,000  Level Houston Center
Sun 03:02:59 PM 31.2611 -87.4386 89° East 385 443 35,000  Level Houston Center
Sun 03:03:39 PM 31.2619 -87.3400 89° East 381 438 35,000  Level Jacksonville Center
Sun 03:04:39 PM 31.2642 -87.2089 89° East 387 445 35,000  Level Jacksonville Center
Sun 03:05:39 PM 31.2644 -87.0800 90° East 387 445 35,000  Level Jacksonville Center
Sun 03:06:39 PM 31.2617 -86.9706 92° East 387 445 35,000  Level Jacksonville Center
Sun 03:07:39 PM 31.2614 -86.8467 90° East 382 440 35,000  Level Jacksonville Center
Sun 03:08:39 PM 31.2781 -86.7186 81° East 387 445 35,000 1,200 Level Jacksonville Center
Sun 03:09:39 PM 31.2939 -86.6050 81° East 373 429 37,400 1,400 Climbing Jacksonville Center
Sun 03:10:39 PM 31.2969 -86.5006 88° East 343 395 37,800 500 Climbing Jacksonville Center
Sun 03:11:39 PM 31.3000 -86.3911 88° East 327 376 38,400 550 Climbing Jacksonville Center
Sun 03:12:39 PM 31.3028 -86.2794 88° East 327 376 38,900 300 Climbing Jacksonville Center
Sun 03:13:39 PM 31.3186 -86.1608 81° East 335 386 39,000 50 Climbing Jacksonville Center
Sun 03:14:39 PM 31.3386 -86.0303 80° East 375 432 39,000  Level Jacksonville Center
Sun 03:15:39 PM 31.3378 -85.8939 90° East 406 467 39,000  Level Jacksonville Center
Sun 03:16:39 PM 31.3328 -85.7456 92° East 427 491 39,000  Level Jacksonville Center
Sun 03:17:39 PM 31.3275 -85.5969 92° East 442 509 39,000  Level Jacksonville Center
Sun 03:18:40 PM 31.3286 -85.4486 89° East 449 517 39,000  Level Jacksonville Center
Sun 03:19:39 PM 31.3231 -85.3025 93° East 449 517 39,000  Level Jacksonville Center
Sun 03:20:39 PM 31.3194 -85.1614 92° East 449 517 39,000  Level Jacksonville Center
Sun 03:21:39 PM 31.3156 -85.0203 92° East 439 505 39,000  Level Jacksonville Center
Sun 03:22:39 PM 31.3075 -84.8742 94° East 439 505 39,000  Level Jacksonville Center
Sun 03:23:39 PM 31.3056 -84.7333 91° East 439 505 39,000  Level Jacksonville Center
Sun 03:24:39 PM 31.2992 -84.5944 93° East 439 505 39,000  Level Jacksonville Center
Sun 03:25:39 PM 31.2967 -84.4536 91° East 439 505 39,000  Level Jacksonville Center
Sun 03:26:39 PM 31.2900 -84.3172 93° East 427 491 39,000  Level Jacksonville Center
Sun 03:27:39 PM 31.2853 -84.1786 92° East 422 486 39,000  Level Jacksonville Center
Sun 03:28:39 PM 31.2781 -84.0425 94° East 422 486 39,000  Level Jacksonville Center
Sun 03:29:39 PM 31.2731 -83.9036 92° East 422 486 39,000  Level Jacksonville Center
Sun 03:30:40 PM 31.2658 -83.7675 94° East 422 486 39,000  Level Jacksonville Center
Sun 03:31:39 PM 31.2606 -83.6144 92° East 427 491 39,000 -403 Level Jacksonville Center
Sun 03:32:39 PM 31.2569 -83.4808 92° East 422 486 38,200 -1,000 Descending Jacksonville Center
Sun 03:33:39 PM 31.2511 -83.3447 93° East 422 486 37,000 -1,350 Descending Jacksonville Center
Sun 03:34:39 PM 31.2433 -83.2108 94° East 422 486 35,500 -1,500 Descending Jacksonville Center
Sun 03:35:39 PM 31.2414 -83.0675 91° East 422 486 34,000 -1,750 Descending Jacksonville Center
Sun 03:36:39 PM 31.2333 -82.9314 94° East 423 487 32,000 -2,300 Descending Jacksonville Center
Sun 03:37:39 PM 31.2247 -82.7931 94° East 423 487 29,400 -2,550 Descending Jacksonville Center
Sun 03:38:39 PM 31.2164 -82.6569 94° East 423 487 26,900 -2,300 Descending Jacksonville Center
Sun 03:39:39 PM 31.2161 -82.5356 90° East 418 481 24,800 -2,300 Descending Jacksonville Center
Sun 03:40:39 PM 31.2072 -82.4117 95° East 405 466 22,300 -2,800 Descending Jacksonville Center
Sun 03:41:39 PM 31.2006 -82.2878 94° East 392 451 19,200 -2,950 Descending Jacksonville Center
Sun 03:42:39 PM 31.1789 -82.1664 102° East 384 442 16,400 -2,900 Descending Jacksonville Center
Sun 03:43:39 PM 31.1575 -82.0550 103° East 363 418 13,400 -3,000 Descending Jacksonville Center
Sun 03:44:39 PM 31.1378 -81.9508 102° East 341 392 10,400 -2,950 Descending Jacksonville Center
Sun 03:45:39 PM 31.1225 -81.8586 101° East 295 339 7,500 -2,650 Descending Jacksonville Center
Sun 03:46:39 PM 31.1050 -81.7667 103° East 270 311 5,100 -2,150 Descending Jacksonville Center
Sun 03:47:39 PM 31.0875 -81.6869 104° East 258 297 3,200 -1,450 Descending Jacksonville Center
Sun 03:48:39 PM 31.0764 -81.6142 100° East 252 290 2,200 -1,000 Descending Jacksonville Center

Login

Don't have an account? Register now (free) for customized features, flight alerts, and more!